HAAB

Addis Ababa Bole International Airport

Addis Ababa, Ethiopia
TAF HAAB 211900Z 2200/2306 12012KT 9999 FEW030 FEW080 BECMG 2209/2212 16015KT FEW030 BECMG 2215/2218 12012KT
Issued Valid From Valid To
Jan-21 @ 19:00 UTC
(5 hours ago)
Jan-22 @ 00:00 UTC
(8 minutes ago)
Jan-23 @ 06:00 UTC
(-1 days ago)
Jan-22 @ 00:00 to Jan-22 @ 09:00
TAF HAAB 211900Z 2200/2306 12012KT 9999 FEW030 FEW080
Wind Visibility Clouds
120° at 12 knots 10,000+ meters
  • Few at 3,000' AGL
  • Few at 8,000' AGL
Becoming Jan-22 @ 09:00 to Jan-22 @ 15:00
BECMG 2209/2212 16015KT FEW030
Wind Visibility Clouds
160° at 15 knots 10,000+ meters
  • Few at 3,000' AGL
Becoming Jan-22 @ 15:00 to Jan-23 @ 06:00
BECMG 2215/2218 12012KT
Wind Visibility Clouds
120° at 12 knots 10,000+ meters
  • Few at 3,000' AGL
TAF HAAB 211900Z 2200/2306 12012KT 9999 FEW030 FEW080 BECMG 2209/2212 16015KT FEW030 BECMG 2215/2218 12012KT
Issued Jan-21 @ 19:00 UTC
(5 hours ago)
Valid From Jan-22 @ 00:00 UTC
(8 minutes ago)
Valid To Jan-23 @ 06:00 UTC
(-1 days ago)
Jan-22 @ 00:00 - Jan-22 @ 09:00
Wind Visibility
120° at 12 knots 10,000+ meters
Clouds
  • Few at 3,000' AGL
  • Few at 8,000' AGL
Becoming Jan-22 @ 09:00 - Jan-22 @ 15:00
Wind Visibility
160° at 15 knots 10,000+ meters
Clouds
  • Few at 3,000' AGL
Becoming Jan-22 @ 15:00 - Jan-23 @ 06:00
Wind Visibility
120° at 12 knots 10,000+ meters
Clouds
  • Few at 3,000' AGL